createdAt,value
2019-04-23T00:01:46.124Z,92.20
2019-04-23T00:04:07.213Z,92.10
2019-04-23T00:06:43.337Z,92.10
2019-04-23T00:11:33.433Z,92.20
2019-04-23T00:14:05.974Z,92.20
2019-04-23T00:16:29.632Z,92.30
2019-04-23T00:18:53.735Z,92.40
2019-04-23T00:21:46.014Z,92.50
2019-04-23T00:24:52.671Z,92.70
2019-04-23T00:27:06.235Z,92.80
2019-04-23T00:29:28.532Z,93.10
2019-04-23T00:32:00.904Z,93.00
2019-04-23T00:34:24.634Z,93.10
2019-04-23T00:36:51.522Z,93.20
2019-04-23T00:39:23.260Z,93.20
2019-04-23T00:41:52.902Z,93.30
2019-04-23T00:46:49.971Z,93.30
2019-04-23T00:51:42.879Z,93.30
2019-04-23T00:54:14.561Z,93.20
2019-04-23T00:56:44.617Z,93.10
2019-04-23T00:59:05.220Z,93.40
2019-04-23T01:01:45.849Z,93.50
2019-04-23T01:04:18.581Z,93.60
2019-04-23T01:06:29.036Z,93.50
2019-04-23T01:11:27.523Z,93.70
2019-04-23T01:13:54.034Z,93.50
2019-04-23T01:16:21.299Z,93.80
2019-04-23T01:18:56.223Z,93.80
2019-04-23T01:21:07.578Z,93.80
2019-04-23T01:23:44.345Z,94.00
2019-04-23T01:26:23.890Z,94.30
2019-04-23T01:29:03.430Z,94.30
2019-04-23T01:31:29.329Z,94.40
2019-04-23T01:33:56.159Z,94.40
2019-04-23T01:39:00.215Z,94.70
2019-04-23T01:41:25.251Z,94.70
2019-04-23T01:43:47.381Z,94.80
2019-04-23T01:46:14.481Z,94.80
2019-04-23T01:48:48.233Z,94.80
2019-04-23T01:51:07.835Z,94.90
2019-04-23T01:53:38.686Z,94.90
2019-04-23T01:56:14.006Z,95.00
2019-04-23T02:01:08.708Z,95.10
2019-04-23T02:03:34.794Z,95.10
2019-04-23T02:08:36.625Z,95.20
2019-04-23T02:13:33.981Z,95.50
2019-04-23T02:15:53.365Z,95.30
2019-04-23T02:18:25.006Z,95.40
2019-04-23T02:20:56.544Z,95.60
2019-04-23T02:28:32.843Z,95.70
2019-04-23T02:38:42.270Z,95.70
2019-04-23T02:41:04.621Z,95.80
2019-04-23T02:43:22.707Z,95.70
2019-04-23T02:48:24.289Z,95.80
2019-04-23T02:50:48.613Z,95.90
2019-04-23T02:53:31.739Z,95.90
2019-04-23T02:58:21.234Z,96.30
2019-04-23T03:00:57.352Z,96.70
2019-04-23T03:03:13.570Z,97.00
2019-04-23T03:05:57.359Z,97.10
2019-04-23T03:08:31.033Z,97.20
2019-04-23T03:10:42.784Z,97.10
2019-04-23T03:13:27.960Z,97.00
2019-04-23T03:18:33.227Z,97.10
2019-04-23T03:21:05.819Z,97.20
2019-04-23T03:25:56.575Z,97.40
2019-04-23T03:28:47.137Z,97.70
2019-04-23T03:38:36.292Z,98.20
2019-04-23T03:41:02.314Z,98.50
2019-04-23T03:43:26.198Z,98.40
2019-04-23T03:45:58.939Z,98.30
2019-04-23T03:48:25.796Z,98.60
2019-04-23T03:50:38.948Z,99.30
2019-04-23T03:53:22.611Z,99.70
2019-04-23T03:55:51.698Z,99.60
2019-04-23T03:58:10.586Z,99.30
2019-04-23T04:00:48.092Z,98.90
2019-04-23T04:05:47.324Z,99.20
2019-04-23T04:10:35.287Z,99.10
2019-04-23T04:12:56.756Z,99.00
2019-04-23T04:18:11.808Z,98.90
2019-04-23T04:23:15.495Z,98.90
2019-04-23T04:25:26.041Z,98.80
2019-04-23T04:28:01.322Z,98.60
2019-04-23T04:30:22.315Z,98.30
2019-04-23T04:32:56.782Z,98.00
2019-04-23T04:37:52.852Z,97.30
2019-04-23T04:40:28.972Z,97.00
2019-04-23T04:45:16.757Z,96.90
2019-04-23T04:47:41.766Z,96.60
2019-04-23T04:49:59.716Z,96.70
2019-04-23T04:54:55.847Z,96.60
2019-04-23T05:00:06.471Z,96.00
2019-04-23T05:02:43.669Z,95.60
2019-04-23T05:04:59.850Z,95.40
2019-04-23T05:07:32.685Z,95.40
2019-04-23T05:09:57.611Z,95.00
2019-04-23T05:12:19.177Z,94.80
2019-04-23T05:14:52.549Z,94.40
2019-04-23T05:17:35.959Z,94.20
2019-04-23T05:19:51.126Z,93.80
2019-04-23T05:22:22.542Z,93.60
2019-04-23T05:24:49.220Z,93.50
2019-04-23T05:27:16.096Z,93.10
2019-04-23T05:29:50.752Z,92.40
2019-04-23T05:32:27.223Z,92.30
2019-04-23T05:34:40.179Z,92.10
2019-04-23T05:37:06.329Z,92.10
2019-04-23T05:39:35.761Z,91.40
2019-04-23T05:42:02.140Z,91.50
2019-04-23T05:44:41.464Z,90.90
2019-04-23T05:46:52.195Z,90.70
2019-04-23T05:49:27.930Z,90.20
2019-04-23T05:51:55.192Z,89.70
2019-04-23T05:54:26.589Z,88.90
2019-04-23T05:56:51.695Z,88.10
2019-04-23T05:59:16.334Z,87.50
2019-04-23T06:04:27.074Z,83.00
2019-04-23T06:09:13.935Z,78.20
2019-04-23T06:14:11.775Z,75.90
2019-04-23T06:16:41.635Z,75.60
2019-04-23T06:19:08.015Z,75.10
2019-04-23T06:21:47.871Z,74.70
2019-04-23T06:24:09.950Z,74.60
2019-04-23T06:29:06.747Z,73.10
2019-04-23T06:31:36.309Z,72.30
2019-04-23T06:33:54.238Z,71.10
2019-04-23T06:36:30.743Z,70.70
2019-04-23T06:38:57.070Z,70.20
2019-04-23T06:41:23.930Z,70.10
2019-04-23T06:44:00.585Z,68.80
2019-04-23T06:46:19.975Z,69.20
2019-04-23T06:48:47.022Z,68.30
2019-04-23T06:51:20.172Z,66.80
2019-04-23T06:53:43.108Z,66.00
2019-04-23T06:58:37.331Z,64.60
2019-04-23T07:01:06.697Z,64.00
2019-04-23T07:08:55.788Z,62.50
2019-04-23T07:11:18.715Z,62.80
2019-04-23T07:13:46.613Z,61.80
2019-04-23T07:16:03.195Z,61.40
2019-04-23T07:18:29.344Z,60.70
2019-04-23T07:21:06.549Z,60.70
2019-04-23T07:23:38.047Z,60.40
2019-04-23T07:26:08.169Z,60.90
2019-04-23T07:28:50.202Z,61.30
2019-04-23T07:31:00.533Z,61.80
2019-04-23T07:33:32.680Z,61.80
2019-04-23T07:35:52.036Z,61.30
2019-04-23T07:38:40.667Z,61.80
2019-04-23T07:41:34.349Z,62.30
2019-04-23T07:43:54.543Z,63.00
2019-04-23T07:46:25.345Z,63.40
2019-04-23T07:48:49.211Z,63.50
2019-04-23T07:51:19.559Z,62.80
2019-04-23T07:56:15.542Z,62.60
2019-04-23T07:58:52.465Z,62.90
2019-04-23T08:01:08.327Z,62.50
2019-04-23T08:06:06.156Z,62.30
2019-04-23T08:08:39.782Z,62.90
2019-04-23T08:13:39.453Z,61.30
2019-04-23T08:16:08.917Z,61.50
2019-04-23T08:18:40.008Z,61.40
2019-04-23T08:21:02.454Z,60.20
2019-04-23T08:23:49.626Z,60.60
2019-04-23T08:31:40.255Z,59.70
2019-04-23T08:34:10.377Z,59.50
2019-04-23T08:36:34.493Z,59.40
2019-04-23T08:38:57.529Z,58.30
2019-04-23T08:43:57.236Z,57.30
2019-04-23T08:46:50.985Z,57.00
2019-04-23T08:49:14.397Z,55.10
2019-04-23T08:52:04.424Z,54.60
2019-04-23T08:54:13.390Z,54.70
2019-04-23T08:56:42.835Z,54.80
2019-04-23T08:59:09.401Z,55.10
2019-04-23T09:01:43.574Z,55.10
2019-04-23T09:04:04.801Z,54.90
2019-04-23T09:06:32.564Z,52.90
2019-04-23T09:08:56.828Z,52.70
2019-04-23T09:16:22.307Z,50.20
2019-04-23T09:18:56.274Z,50.00
2019-04-23T09:21:25.723Z,49.90
2019-04-23T09:23:56.183Z,48.60
2019-04-23T09:26:08.888Z,46.10
2019-04-23T09:32:00.612Z,44.60
2019-04-23T09:34:05.104Z,44.90
2019-04-23T09:36:47.495Z,44.40
2019-04-23T09:42:07.107Z,40.90
2019-04-23T09:44:48.466Z,40.40
2019-04-23T09:47:16.005Z,40.50
2019-04-23T09:49:57.219Z,40.80
2019-04-23T09:52:14.659Z,39.70
2019-04-23T09:54:40.225Z,38.90
2019-04-23T09:56:57.418Z,39.80
2019-04-23T10:01:52.873Z,39.40
2019-04-23T10:04:18.837Z,40.30
2019-04-23T10:06:34.532Z,39.80
2019-04-23T10:09:01.975Z,39.50
2019-04-23T10:11:26.372Z,38.30
2019-04-23T10:13:54.351Z,39.00
2019-04-23T10:16:24.057Z,38.00
2019-04-23T10:18:50.896Z,37.80
2019-04-23T10:21:17.613Z,37.40
2019-04-23T10:23:45.198Z,38.00
2019-04-23T10:26:12.212Z,36.60
2019-04-23T10:28:42.049Z,37.60
2019-04-23T10:31:09.099Z,38.30
2019-04-23T10:33:35.597Z,37.20
2019-04-23T10:36:08.502Z,35.20
2019-04-23T10:38:32.759Z,34.50
2019-04-23T10:41:00.130Z,35.20
2019-04-23T10:43:28.823Z,34.80
2019-04-23T10:46:25.600Z,35.30
2019-04-23T10:54:26.472Z,34.70
2019-04-23T10:59:12.209Z,35.50
2019-04-23T11:01:43.524Z,34.40
2019-04-23T11:04:23.758Z,35.30
2019-04-23T11:06:47.126Z,35.30
2019-04-23T11:09:18.507Z,36.40
2019-04-23T11:11:49.846Z,34.90
2019-04-23T11:14:11.076Z,35.00
2019-04-23T11:16:49.590Z,33.80
2019-04-23T11:19:12.352Z,33.80
2019-04-23T11:21:38.466Z,34.00
2019-04-23T11:24:11.615Z,34.60
2019-04-23T11:29:07.002Z,33.00
2019-04-23T11:31:39.225Z,32.50
2019-04-23T11:33:59.408Z,32.80
2019-04-23T11:41:34.282Z,33.40
2019-04-23T11:43:46.434Z,32.30
2019-04-23T11:50:59.848Z,32.90
2019-04-23T11:56:22.758Z,32.50
2019-04-23T11:58:42.232Z,31.30
2019-04-23T12:01:47.775Z,31.40
2019-04-23T12:04:13.158Z,31.90
2019-04-23T12:06:55.792Z,32.10
2019-04-23T12:09:37.771Z,31.30
2019-04-23T12:12:11.248Z,31.30
2019-04-23T12:17:21.974Z,31.20
2019-04-23T12:22:01.392Z,30.90
2019-04-23T12:24:55.391Z,30.90
2019-04-23T12:29:27.428Z,30.90
2019-04-23T12:32:24.147Z,30.20
2019-04-23T12:34:50.853Z,30.90
2019-04-23T12:37:10.133Z,31.00
2019-04-23T12:39:42.498Z,30.30
2019-04-23T12:42:19.774Z,30.60
2019-04-23T12:44:39.296Z,30.60
2019-04-23T12:47:09.077Z,30.60
2019-04-23T12:52:12.186Z,30.20
2019-04-23T12:54:51.091Z,29.60
2019-04-23T12:59:36.811Z,31.00
2019-04-23T13:02:03.533Z,30.00
2019-04-23T13:04:32.253Z,30.00
2019-04-23T13:07:01.207Z,29.30
2019-04-23T13:09:42.885Z,28.80
2019-04-23T13:12:01.551Z,28.70
2019-04-23T13:14:36.459Z,28.60
2019-04-23T13:17:02.370Z,28.30
2019-04-23T13:19:33.945Z,28.40
2019-04-23T13:21:58.527Z,28.40
2019-04-23T13:24:36.058Z,28.30
2019-04-23T13:27:01.224Z,28.40
2019-04-23T13:29:38.016Z,28.50
2019-04-23T13:31:49.655Z,28.90
2019-04-23T13:34:37.641Z,29.40
2019-04-23T13:36:51.306Z,29.20
2019-04-23T13:39:24.463Z,29.00
2019-04-23T13:41:48.251Z,29.00
2019-04-23T13:44:17.650Z,28.70
2019-04-23T13:46:45.294Z,28.90
2019-04-23T13:49:16.652Z,28.70
2019-04-23T13:51:40.408Z,28.30
2019-04-23T13:54:24.727Z,28.20
2019-04-23T13:59:31.406Z,28.60
2019-04-23T14:02:18.108Z,28.90
2019-04-23T14:04:34.840Z,28.40
2019-04-23T14:06:49.411Z,27.50
2019-04-23T14:09:32.481Z,28.00
2019-04-23T14:11:45.128Z,28.10
2019-04-23T14:14:36.221Z,28.40
2019-04-23T14:17:01.866Z,28.20
2019-04-23T14:19:06.809Z,28.30
2019-04-23T14:21:47.166Z,28.60
2019-04-23T14:26:39.112Z,28.90
2019-04-23T14:29:06.419Z,28.40
2019-04-23T14:31:36.936Z,28.50
2019-04-23T14:34:11.574Z,28.80
2019-04-23T14:36:39.485Z,29.30
2019-04-23T14:39:06.441Z,29.20
2019-04-23T14:41:27.314Z,29.60
2019-04-23T14:46:53.022Z,29.60
2019-04-23T14:51:49.778Z,29.00
2019-04-23T14:53:52.118Z,28.50
2019-04-23T14:56:27.812Z,29.20
2019-04-23T15:03:49.159Z,29.50
2019-04-23T15:16:26.610Z,30.00
2019-04-23T15:19:12.925Z,29.80
2019-04-23T15:21:49.503Z,29.30
2019-04-23T15:24:00.205Z,28.90
2019-04-23T15:28:18.584Z,30.00
2019-04-23T15:31:28.362Z,30.00
2019-04-23T15:33:46.687Z,30.00
2019-04-23T15:36:28.859Z,30.20
2019-04-23T15:38:43.440Z,30.10
2019-04-23T15:41:10.701Z,30.00
2019-04-23T15:43:32.631Z,30.00
2019-04-23T15:46:04.866Z,30.40
2019-04-23T15:48:32.235Z,30.50
2019-04-23T15:51:04.459Z,29.90
2019-04-23T15:53:17.991Z,29.60
2019-04-23T15:55:59.580Z,30.20
2019-04-23T15:58:40.094Z,30.00
2019-04-23T16:01:18.115Z,30.10
2019-04-23T16:03:13.579Z,29.90
2019-04-23T16:05:41.272Z,29.40
2019-04-23T16:08:50.021Z,29.70
2019-04-23T16:11:15.612Z,29.90
2019-04-23T16:13:42.652Z,30.20
2019-04-23T16:21:10.465Z,30.60
2019-04-23T16:23:37.484Z,31.40
2019-04-23T16:26:12.378Z,31.30
2019-04-23T16:28:50.479Z,30.90
2019-04-23T16:31:03.165Z,31.10
2019-04-23T16:33:34.052Z,30.80
2019-04-23T16:36:11.164Z,30.80
2019-04-23T16:38:38.355Z,30.80
2019-04-23T16:41:03.843Z,30.90
2019-04-23T16:43:48.645Z,31.10
2019-04-23T16:51:14.157Z,30.60
2019-04-23T16:53:25.228Z,30.70
2019-04-23T16:56:08.298Z,30.70
2019-04-23T16:58:36.691Z,31.00
2019-04-23T17:01:00.361Z,31.20
2019-04-23T17:05:50.523Z,31.20
2019-04-23T17:08:35.459Z,31.20
2019-04-23T17:10:53.359Z,31.20
2019-04-23T17:13:13.737Z,31.20
2019-04-23T17:15:54.736Z,31.70
2019-04-23T17:18:12.036Z,31.90
2019-04-23T17:20:37.527Z,32.60
2019-04-23T17:23:20.843Z,33.60
2019-04-23T17:25:34.851Z,34.00
2019-04-23T17:28:12.763Z,34.10
2019-04-23T17:33:19.132Z,34.50
2019-04-23T17:35:58.629Z,34.50
2019-04-23T17:38:23.032Z,35.30
2019-04-23T17:41:01.919Z,35.20
2019-04-23T17:43:26.921Z,35.70
2019-04-23T17:45:57.248Z,35.70
2019-04-23T17:48:21.955Z,35.50
2019-04-23T17:50:54.669Z,36.20
2019-04-23T17:53:25.327Z,36.20
2019-04-23T17:56:08.135Z,36.30
2019-04-23T17:58:23.354Z,36.80
2019-04-23T18:01:02.518Z,37.50
2019-04-23T18:03:36.198Z,37.00
2019-04-23T18:05:56.166Z,37.00
2019-04-23T18:08:19.094Z,37.20
2019-04-23T18:10:53.048Z,37.50
2019-04-23T18:13:16.878Z,37.40
2019-04-23T18:15:49.640Z,37.20
2019-04-23T18:18:10.071Z,37.40
2019-04-23T18:20:54.371Z,37.60
2019-04-23T18:23:15.149Z,37.60
2019-04-23T18:26:08.416Z,37.60
2019-04-23T18:28:33.543Z,38.00
2019-04-23T18:31:25.249Z,38.50
2019-04-23T18:36:20.626Z,38.20
2019-04-23T18:38:55.194Z,38.20
2019-04-23T18:41:10.517Z,38.50
2019-04-23T18:43:51.147Z,38.70
2019-04-23T18:46:25.664Z,38.90
2019-04-23T18:48:49.794Z,39.20
2019-04-23T18:51:05.197Z,39.90
2019-04-23T18:56:13.673Z,39.90
2019-04-23T19:01:27.951Z,40.50
2019-04-23T19:03:59.160Z,40.40
2019-04-23T19:06:30.394Z,40.20
2019-04-23T19:09:16.346Z,39.90
2019-04-23T19:17:09.068Z,39.70
2019-04-23T19:19:20.155Z,40.10
2019-04-23T19:24:12.652Z,40.60
2019-04-23T19:27:03.264Z,40.80
2019-04-23T19:31:49.371Z,41.20
2019-04-23T19:34:21.400Z,40.80
2019-04-23T19:36:54.643Z,41.00
2019-04-23T19:39:21.030Z,41.10
2019-04-23T19:41:51.984Z,41.40
2019-04-23T19:44:08.356Z,41.90
2019-04-23T19:46:50.535Z,42.70
2019-04-23T19:51:44.290Z,42.90
2019-04-23T19:56:39.299Z,42.90
2019-04-23T19:58:56.251Z,43.00
2019-04-23T20:03:53.659Z,44.30
2019-04-23T20:06:32.750Z,43.80
2019-04-23T20:11:30.232Z,44.40
2019-04-23T20:13:52.594Z,44.60
2019-04-23T20:16:23.182Z,44.70
2019-04-23T20:21:32.608Z,44.70
2019-04-23T20:29:10.878Z,45.00
2019-04-23T20:34:34.204Z,45.40
2019-04-23T20:36:17.025Z,45.20
2019-04-23T20:38:57.764Z,45.30
2019-04-23T20:41:11.909Z,45.20
2019-04-23T20:43:42.969Z,45.90
2019-04-23T20:48:44.737Z,46.60
2019-04-23T20:51:02.013Z,46.30
2019-04-23T20:53:35.761Z,45.90
2019-04-23T20:58:38.863Z,46.80
2019-04-23T21:01:33.963Z,47.10
2019-04-23T21:04:09.130Z,47.20
2019-04-23T21:06:10.462Z,47.60
2019-04-23T21:11:01.397Z,47.70
2019-04-23T21:13:51.816Z,47.90
2019-04-23T21:15:58.345Z,48.30
2019-04-23T21:20:56.281Z,49.00
2019-04-23T21:23:47.591Z,49.10
2019-04-23T21:39:12.103Z,49.80
2019-04-23T21:46:36.745Z,49.70
2019-04-23T21:49:18.151Z,49.70
2019-04-23T21:54:06.164Z,50.10
2019-04-23T21:56:35.583Z,50.20
2019-04-23T21:59:01.462Z,50.60
2019-04-23T22:01:34.942Z,51.30
2019-04-23T22:04:15.095Z,51.30
2019-04-23T22:06:31.604Z,51.60
2019-04-23T22:09:00.610Z,51.70
2019-04-23T22:11:42.869Z,51.00
2019-04-23T22:13:58.362Z,51.70
2019-04-23T22:19:00.321Z,51.90
2019-04-23T22:21:14.435Z,51.00
2019-04-23T22:23:53.910Z,50.90
2019-04-23T22:26:16.293Z,51.20
2019-04-23T22:28:50.130Z,51.80
2019-04-23T22:31:12.488Z,52.30
2019-04-23T22:33:50.245Z,52.60
2019-04-23T22:36:14.701Z,52.70
2019-04-23T22:43:32.724Z,53.50
2019-04-23T22:45:59.819Z,53.90
2019-04-23T22:48:25.437Z,54.50
2019-04-23T22:51:06.624Z,55.30
2019-04-23T22:53:19.093Z,55.20
2019-04-23T22:55:57.280Z,55.00
2019-04-23T22:58:27.724Z,55.70
2019-04-23T23:00:55.295Z,56.70
2019-04-23T23:03:27.057Z,56.30
2019-04-23T23:08:48.179Z,56.50
2019-04-23T23:10:51.919Z,56.00
2019-04-23T23:13:24.308Z,56.40
2019-04-23T23:20:44.894Z,57.00
2019-04-23T23:25:39.268Z,58.00
2019-04-23T23:28:11.801Z,58.30
2019-04-23T23:30:52.025Z,58.30
2019-04-23T23:33:09.398Z,57.60
2019-04-23T23:35:34.511Z,58.40
2019-04-23T23:38:07.499Z,58.60
2019-04-23T23:40:41.299Z,58.70
2019-04-23T23:43:15.812Z,59.10
2019-04-23T23:45:35.266Z,59.90
2019-04-23T23:47:59.196Z,60.10
2019-04-23T23:53:11.655Z,59.50
2019-04-23T23:55:18.481Z,61.20
2019-04-23T23:57:56.822Z,60.60
